Time;durP1;ratioP1;P1;durP2;ratioP2;P2;SDS_P1;SDS_P2;PMS_P1;PMS_P2;Temp;Humidity;BMP_temperature;BMP_pressure;BME280_temperature;BME280_humidity;BME280_pressure;Samples;Min_cycle;Max_cycle;Signal;HPM_P1;HPM_P2
2022/10/10 00:02:07;;;;;;;17.60;10.23;;;;;;;10.60;nan;94033.66;4881285;29;20049;-57
2022/10/10 00:04:54;;;;;;;18.20;9.30;;;;;;;10.69;nan;94035.91;4881038;29;20499;-52
2022/10/10 00:07:41;;;;;;;17.38;9.77;;;;;;;10.68;nan;94034.34;4880715;29;20052;-54
2022/10/10 00:10:29;;;;;;;17.63;9.73;;;;;;;10.67;nan;94030.06;4880943;29;20136;-51
2022/10/10 00:13:16;;;;;;;16.95;9.50;;;;;;;10.71;nan;94031.56;4880632;29;20128;-55
2022/10/10 00:16:03;;;;;;;16.57;9.73;;;;;;;10.62;nan;94031.28;4867224;29;20128;-51
2022/10/10 00:18:51;;;;;;;16.08;9.48;;;;;;;10.58;nan;94022.31;4881647;29;20092;-52
2022/10/10 00:21:37;;;;;;;83.35;39.00;;;;;;;10.69;nan;94027.69;4881020;29;20072;-51
2022/10/10 00:24:24;;;;;;;20.13;10.27;;;;;;;10.63;nan;94027.38;4880596;29;20135;-57
2022/10/10 00:27:11;;;;;;;18.20;9.70;;;;;;;10.51;nan;94027.94;4879994;29;20053;-56
2022/10/10 00:29:58;;;;;;;17.03;9.60;;;;;;;10.44;nan;94026.03;4880986;29;20135;-56
2022/10/10 00:32:45;;;;;;;16.23;9.65;;;;;;;10.58;nan;94033.31;4880229;29;20132;-56
2022/10/10 00:35:33;;;;;;;16.38;8.98;;;;;;;10.56;nan;94028.25;4880705;29;20113;-55
2022/10/10 00:38:20;;;;;;;16.05;9.20;;;;;;;10.53;nan;94028.28;4880065;29;20132;-53
2022/10/10 00:41:07;;;;;;;16.35;9.32;;;;;;;10.48;nan;94031.47;4880298;29;20081;-55
2022/10/10 00:44:11;;;;;;;15.27;8.83;;;;;;;10.56;nan;94030.19;4869444;29;20053;-55
2022/10/10 00:46:58;;;;;;;17.63;9.57;;;;;;;10.43;nan;94031.94;4880533;29;20048;-56
2022/10/10 00:52:20;;;;;;;18.58;9.43;;;;;;;10.31;nan;94036.78;4949607;23;20047;-71
2022/10/10 00:54:47;;;;;;;16.95;9.00;;;;;;;10.44;nan;94028.00;4936760;29;20044;-71
2022/10/10 00:57:14;;;;;;;44.30;14.10;;;;;;;10.45;nan;94035.06;4942029;29;20510;-71
2022/10/10 00:59:44;;;;;;;70.78;20.00;;;;;;;10.36;nan;94030.06;4951067;29;20051;-71
2022/10/10 01:02:11;;;;;;;37.60;16.70;;;;;;;10.28;nan;94023.06;4919342;29;21079;-71
2022/10/10 01:04:43;;;;;;;38.35;17.20;;;;;;;10.31;nan;94025.03;4932006;29;20551;-71
2022/10/10 01:07:15;;;;;;;20.15;10.90;;;;;;;10.42;nan;94024.91;4930966;29;20051;-71
2022/10/10 01:09:43;;;;;;;19.23;10.20;;;;;;;10.37;nan;94018.69;4938307;29;20043;-71
2022/10/10 01:12:47;;;;;;;18.67;11.30;;;;;;;10.41;nan;94018.63;4950558;29;20191;-71
2022/10/10 01:15:43;;;;;;;30.98;15.95;;;;;;;10.38;nan;94005.72;4934885;29;21101;-71
2022/10/10 01:18:28;;;;;;;26.67;14.15;;;;;;;10.39;nan;94015.53;4950579;29;20043;-71
2022/10/10 01:20:59;;;;;;;24.88;13.70;;;;;;;10.43;nan;94010.00;4950292;29;20043;-71
2022/10/10 01:23:56;;;;;;;21.93;12.20;;;;;;;10.38;nan;94009.28;4950999;29;20516;-72
2022/10/10 01:26:48;;;;;;;21.10;11.82;;;;;;;10.30;nan;94016.03;4946897;29;20930;-72
2022/10/10 01:29:36;;;;;;;17.80;10.80;;;;;;;10.34;nan;94013.22;4930959;29;20698;-71
2022/10/10 01:32:19;;;;;;;17.27;10.10;;;;;;;10.42;nan;94013.94;4931450;29;20051;-71
2022/10/10 01:35:18;;;;;;;19.25;10.80;;;;;;;10.49;nan;94011.09;4931424;29;20056;-71
2022/10/10 01:38:01;;;;;;;19.83;11.17;;;;;;;10.45;nan;94007.63;4930524;29;20852;-70
2022/10/10 01:40:35;;;;;;;19.25;10.75;;;;;;;10.52;nan;94007.50;4930844;29;21543;-71
2022/10/10 01:43:05;;;;;;;18.83;10.70;;;;;;;10.51;nan;94009.50;4931235;29;20059;-71
2022/10/10 01:45:31;;;;;;;18.80;10.48;;;;;;;10.55;nan;94012.19;4931728;29;20073;-71
2022/10/10 01:48:05;;;;;;;21.45;11.10;;;;;;;10.56;nan;94011.78;4930817;29;20055;-71
2022/10/10 01:50:43;;;;;;;21.13;10.97;;;;;;;10.57;nan;94007.06;4931542;29;20070;-71
2022/10/10 01:53:43;;;;;;;18.48;11.05;;;;;;;10.55;nan;94001.97;4931127;29;20047;-70
2022/10/10 01:56:19;;;;;;;19.25;10.85;;;;;;;10.48;nan;94001.28;4931103;29;20056;-71
2022/10/10 01:59:20;;;;;;;18.95;10.15;;;;;;;10.49;nan;94002.88;4931612;29;20044;-71
2022/10/10 02:01:55;;;;;;;17.48;10.10;;;;;;;10.46;nan;94006.41;4925294;29;20395;-69
2022/10/10 02:04:48;;;;;;;17.50;9.97;;;;;;;10.48;nan;93999.31;4931291;29;20046;-70
2022/10/10 02:07:41;;;;;;;20.13;10.13;;;;;;;10.46;nan;94003.69;4928905;29;20199;-71
2022/10/10 02:10:10;;;;;;;18.25;10.38;;;;;;;10.47;nan;93994.28;4919498;29;20040;-72
2022/10/10 02:12:39;;;;;;;18.10;10.50;;;;;;;10.36;nan;93995.19;4931771;29;20066;-71
2022/10/10 02:15:13;;;;;;;19.38;10.15;;;;;;;10.30;nan;93998.78;4930839;29;20502;-71
2022/10/10 02:17:44;;;;;;;19.40;10.37;;;;;;;10.29;nan;93994.47;4931580;29;20404;-71
2022/10/10 02:20:15;;;;;;;18.52;10.20;;;;;;;10.23;nan;93999.63;4934840;29;20488;-71
2022/10/10 02:22:44;;;;;;;19.33;10.60;;;;;;;10.20;nan;93998.50;4935029;29;20051;-72
2022/10/10 02:25:12;;;;;;;19.58;10.15;;;;;;;10.17;nan;94002.06;4935055;29;20052;-71
2022/10/10 02:27:47;;;;;;;19.85;10.90;;;;;;;10.17;nan;94007.53;4935389;29;20048;-71
2022/10/10 02:30:14;;;;;;;20.97;10.80;;;;;;;10.17;nan;93993.81;4934651;29;21565;-71
2022/10/10 02:32:57;;;;;;;20.50;11.02;;;;;;;10.21;nan;93988.28;4918693;29;20059;-72
2022/10/10 02:35:34;;;;;;;18.67;11.27;;;;;;;10.10;nan;93993.13;4934468;29;20054;-71
2022/10/10 02:38:04;;;;;;;17.92;11.15;;;;;;;10.16;nan;93992.28;4934856;29;20052;-71
2022/10/10 02:40:34;;;;;;;21.95;11.13;;;;;;;10.20;nan;93990.28;4935172;29;20397;-71
2022/10/10 02:43:04;;;;;;;17.63;10.43;;;;;;;10.23;nan;93985.16;4934833;29;20047;-71
2022/10/10 02:45:32;;;;;;;20.67;10.98;;;;;;;10.27;nan;93994.13;4922123;29;20051;-70
2022/10/10 02:48:02;;;;;;;17.73;10.05;;;;;;;10.30;nan;93990.56;4934919;29;20043;-70
2022/10/10 02:50:30;;;;;;;17.40;10.55;;;;;;;10.19;nan;93990.69;4934909;29;20058;-71
2022/10/10 02:52:58;;;;;;;22.85;11.10;;;;;;;10.20;nan;93992.22;4934314;29;20058;-71
2022/10/10 02:55:26;;;;;;;18.10;10.77;;;;;;;10.25;nan;93994.50;4918175;29;20488;-72
2022/10/10 02:57:52;;;;;;;20.90;9.88;;;;;;;10.32;nan;93997.22;4934387;29;20050;-71
2022/10/10 03:00:20;;;;;;;20.38;11.05;;;;;;;10.28;nan;93993.72;4936826;29;20050;-71
2022/10/10 03:02:46;;;;;;;18.80;10.05;;;;;;;10.23;nan;93999.63;4934978;29;20044;-71
2022/10/10 03:05:13;;;;;;;18.30;10.60;;;;;;;10.09;nan;94008.03;4933810;29;20400;-72
2022/10/10 03:07:40;;;;;;;18.07;10.13;;;;;;;10.17;nan;94002.06;4934478;29;20039;-71
2022/10/10 03:10:07;;;;;;;18.88;10.25;;;;;;;10.21;nan;94004.75;4917446;29;20066;-71
2022/10/10 03:12:34;;;;;;;17.50;10.43;;;;;;;10.22;nan;94002.78;4934666;29;20058;-71
2022/10/10 03:15:03;;;;;;;19.33;10.05;;;;;;;10.11;nan;94003.69;4934217;29;20382;-71
2022/10/10 03:17:33;;;;;;;18.77;9.75;;;;;;;10.21;nan;94007.50;4934711;29;20055;-71
2022/10/10 03:20:00;;;;;;;19.80;9.60;;;;;;;10.28;nan;94012.09;4934017;29;20048;-71
2022/10/10 03:22:27;;;;;;;18.05;9.48;;;;;;;10.33;nan;94004.22;4934401;29;20062;-71
2022/10/10 03:24:54;;;;;;;17.13;9.30;;;;;;;10.30;nan;94002.31;4934002;29;20040;-71
2022/10/10 03:27:20;;;;;;;16.35;9.32;;;;;;;10.27;nan;93997.63;4934350;29;20110;-71
2022/10/10 03:29:47;;;;;;;19.90;10.60;;;;;;;10.24;nan;93992.97;4933126;29;20386;-70
2022/10/10 03:32:14;;;;;;;17.27;9.83;;;;;;;10.20;nan;93992.22;4933989;29;20059;-70
2022/10/10 03:34:41;;;;;;;19.88;10.70;;;;;;;10.12;nan;94002.53;4934155;29;20047;-71
2022/10/10 03:37:08;;;;;;;44.00;22.95;;;;;;;10.11;nan;94000.94;4933845;29;20051;-71
2022/10/10 03:39:35;;;;;;;20.83;11.15;;;;;;;10.14;nan;94004.81;4934161;29;20102;-71
2022/10/10 03:42:02;;;;;;;17.50;10.70;;;;;;;10.13;nan;94004.06;4933358;29;20087;-71
2022/10/10 03:44:29;;;;;;;20.00;10.00;;;;;;;10.17;nan;93999.31;4934129;29;20054;-71
2022/10/10 03:46:55;;;;;;;20.20;10.77;;;;;;;10.15;nan;94003.66;4933551;29;20051;-71
2022/10/10 03:49:22;;;;;;;18.75;10.18;;;;;;;10.20;nan;94003.19;4934004;29;20047;-71
2022/10/10 03:51:49;;;;;;;18.40;10.40;;;;;;;10.18;nan;94000.88;4933245;29;20048;-71
2022/10/10 03:54:16;;;;;;;19.65;10.63;;;;;;;10.18;nan;94002.81;4933662;29;20049;-71
2022/10/10 03:56:43;;;;;;;21.53;11.17;;;;;;;10.17;nan;94009.50;4933877;29;20056;-71
2022/10/10 03:59:10;;;;;;;18.50;10.40;;;;;;;10.22;nan;94002.78;4933323;29;20480;-71
2022/10/10 04:01:36;;;;;;;19.55;10.57;;;;;;;10.20;nan;94000.44;4937654;29;20062;-71
2022/10/10 04:04:04;;;;;;;20.15;9.98;;;;;;;10.15;nan;94004.44;4933197;29;20047;-70
2022/10/10 04:06:31;;;;;;;18.83;10.75;;;;;;;10.08;nan;94001.00;4933430;29;20050;-70
2022/10/10 04:08:57;;;;;;;18.47;10.33;;;;;;;9.97;nan;93998.38;4933166;29;20252;-71
2022/10/10 04:11:24;;;;;;;19.63;10.90;;;;;;;9.92;nan;93999.63;4933564;29;20044;-71
2022/10/10 04:13:51;;;;;;;21.02;11.00;;;;;;;9.95;nan;93998.78;4933216;29;20057;-71
2022/10/10 04:16:18;;;;;;;22.20;10.80;;;;;;;9.89;nan;94005.91;4916572;29;20135;-71
2022/10/10 04:18:45;;;;;;;18.42;10.35;;;;;;;9.84;nan;93991.88;4933417;29;20055;-71
2022/10/10 04:21:12;;;;;;;23.67;10.93;;;;;;;9.88;nan;93998.09;4915870;29;20043;-71
2022/10/10 04:23:40;;;;;;;22.45;10.52;;;;;;;9.92;nan;93998.81;4933486;29;20078;-71
2022/10/10 04:26:07;;;;;;;21.85;11.60;;;;;;;9.92;nan;93999.63;4932782;29;20047;-71
2022/10/10 04:28:34;;;;;;;19.73;11.05;;;;;;;9.95;nan;93998.00;4916398;29;20048;-71
2022/10/10 04:31:00;;;;;;;21.17;11.20;;;;;;;9.98;nan;93995.25;4932643;29;20047;-71
2022/10/10 04:33:27;;;;;;;20.73;10.47;;;;;;;10.01;nan;93993.63;4933026;29;20052;-71
2022/10/10 04:35:54;;;;;;;18.98;10.77;;;;;;;10.09;nan;93997.84;4932301;29;20048;-71
2022/10/10 04:38:21;;;;;;;20.30;11.02;;;;;;;10.04;nan;93992.81;4933142;29;20048;-71
2022/10/10 04:40:49;;;;;;;18.20;9.93;;;;;;;10.11;nan;93989.22;4932746;29;20050;-71
2022/10/10 04:43:17;;;;;;;20.55;10.13;;;;;;;10.19;nan;93990.69;4932866;29;20036;-71
2022/10/10 04:45:44;;;;;;;16.33;9.60;;;;;;;9.99;nan;93988.56;4933187;29;20044;-71
2022/10/10 04:48:11;;;;;;;19.65;10.30;;;;;;;10.03;nan;93988.50;4932652;29;20044;-71
2022/10/10 04:50:38;;;;;;;19.45;10.98;;;;;;;9.87;nan;93989.09;4933103;29;20044;-71
2022/10/10 04:53:05;;;;;;;22.50;11.90;;;;;;;9.73;nan;93992.75;4932031;29;20040;-71
2022/10/10 04:55:32;;;;;;;18.25;10.45;;;;;;;9.87;nan;93994.56;4916082;29;20056;-71
2022/10/10 04:57:58;;;;;;;25.07;11.97;;;;;;;10.02;nan;93992.47;4932237;29;20524;-72
2022/10/10 05:00:26;;;;;;;17.42;10.65;;;;;;;10.08;nan;93990.03;4935625;29;20043;-71
2022/10/10 05:02:53;;;;;;;20.63;11.65;;;;;;;10.06;nan;93993.19;4919312;29;20054;-71
2022/10/10 05:05:20;;;;;;;19.58;10.77;;;;;;;9.97;nan;93999.16;4932666;29;20047;-71
2022/10/10 05:07:47;;;;;;;20.35;11.02;;;;;;;9.94;nan;93996.44;4932308;29;20048;-69
2022/10/10 05:10:18;;;;;;;20.50;10.70;;;;;;;9.88;nan;94004.38;4916560;29;20050;-71
2022/10/10 05:12:45;;;;;;;20.92;12.27;;;;;;;9.81;nan;94009.91;4932682;29;20048;-70
2022/10/10 05:15:12;;;;;;;20.98;12.63;;;;;;;9.97;nan;94010.13;4931741;29;20563;-70
2022/10/10 05:17:39;;;;;;;24.88;12.32;;;;;;;10.03;nan;93998.72;4932594;29;20052;-71
2022/10/10 05:20:06;;;;;;;1999.15;660.42;;;;;;;10.06;nan;94004.16;4931956;29;20055;-71
2022/10/10 05:22:33;;;;;;;215.00;65.50;;;;;;;9.94;nan;94013.69;4932447;29;20693;-71
2022/10/10 05:25:00;;;;;;;546.40;183.85;;;;;;;9.98;nan;94006.19;4931657;29;20052;-71
2022/10/10 05:27:27;;;;;;;271.48;96.72;;;;;;;10.06;nan;94017.06;4915419;29;20050;-71
2022/10/10 05:29:55;;;;;;;45.17;20.45;;;;;;;9.97;nan;94017.56;4931790;29;20050;-71
2022/10/10 05:32:22;;;;;;;25.27;12.93;;;;;;;9.90;nan;94018.44;4932150;29;20039;-72
2022/10/10 05:34:49;;;;;;;26.73;16.33;;;;;;;9.91;nan;94016.47;4932166;29;20054;-71
2022/10/10 05:37:15;;;;;;;31.58;18.15;;;;;;;10.02;nan;94013.59;4915208;29;20480;-71
2022/10/10 05:39:42;;;;;;;25.05;14.05;;;;;;;9.99;nan;94012.47;4932057;29;20035;-71
2022/10/10 05:42:09;;;;;;;21.00;12.73;;;;;;;9.90;nan;94015.69;4931867;29;20046;-71
2022/10/10 05:44:36;;;;;;;32.78;18.75;;;;;;;10.04;nan;94013.97;4934182;29;20050;-72
2022/10/10 05:47:03;;;;;;;41.33;24.63;;;;;;;10.13;nan;94020.50;4932870;29;20040;-71
2022/10/10 05:49:30;;;;;;;27.85;14.82;;;;;;;10.17;nan;94007.53;4915715;29;20054;-72
2022/10/10 05:51:56;;;;;;;26.60;13.60;;;;;;;10.24;nan;94006.69;4931136;29;20046;-71
2022/10/10 05:54:23;;;;;;;33.40;15.85;;;;;;;10.24;nan;94009.44;4931484;29;20063;-71
2022/10/10 05:56:50;;;;;;;30.10;16.13;;;;;;;10.27;nan;94005.09;4931399;29;20047;-72
2022/10/10 05:59:17;;;;;;;24.43;12.60;;;;;;;10.33;nan;94012.47;4931961;29;20047;-71
2022/10/10 06:01:44;;;;;;;24.67;13.77;;;;;;;10.36;nan;94014.41;4932765;29;20044;-71
2022/10/10 06:04:10;;;;;;;28.73;14.02;;;;;;;10.34;nan;94016.78;4931115;29;20046;-71
2022/10/10 06:06:37;;;;;;;28.17;13.18;;;;;;;10.43;nan;94018.22;4931974;29;20415;-71
2022/10/10 06:09:04;;;;;;;24.02;12.40;;;;;;;10.48;nan;94017.75;4931132;29;20052;-71
2022/10/10 06:11:31;;;;;;;28.43;14.83;;;;;;;10.55;nan;94021.19;4931720;29;20519;-71
2022/10/10 06:13:58;;;;;;;43.60;23.17;;;;;;;10.56;nan;94025.50;4930503;29;20052;-70
2022/10/10 06:16:26;;;;;;;30.10;15.43;;;;;;;10.57;nan;94023.53;4912829;29;20048;-70
2022/10/10 06:18:55;;;;;;;27.02;14.02;;;;;;;10.57;nan;94029.78;4930423;29;20155;-71
2022/10/10 06:21:23;;;;;;;28.95;15.70;;;;;;;10.61;nan;94026.22;4931126;29;20066;-70
2022/10/10 06:23:51;;;;;;;30.17;14.33;;;;;;;10.65;nan;94024.22;4929599;29;20044;-70
2022/10/10 06:26:18;;;;;;;27.65;12.85;;;;;;;10.76;nan;94024.81;4929940;29;20048;-70
2022/10/10 06:28:45;;;;;;;26.75;14.02;;;;;;;10.78;nan;94030.69;4931232;29;20060;-72
2022/10/10 06:31:13;;;;;;;24.73;13.40;;;;;;;10.96;nan;94033.94;4930682;29;20051;-70
2022/10/10 06:33:44;;;;;;;27.55;13.48;;;;;;;10.86;nan;94029.38;4931176;29;20090;-71
2022/10/10 06:36:12;;;;;;;33.83;14.60;;;;;;;10.97;nan;94032.00;4914260;29;20055;-70
2022/10/10 06:38:41;;;;;;;29.67;15.55;;;;;;;10.92;nan;94041.44;4931334;29;20527;-70
2022/10/10 06:41:08;;;;;;;29.95;16.33;;;;;;;10.99;nan;94046.84;4930941;29;20086;-70
2022/10/10 06:43:35;;;;;;;29.88;15.48;;;;;;;10.95;nan;94042.59;4931640;29;20050;-69
2022/10/10 06:46:03;;;;;;;29.83;15.02;;;;;;;10.85;nan;94033.34;4931101;29;20048;-70
2022/10/10 06:48:33;;;;;;;23.40;12.70;;;;;;;10.90;nan;94043.84;4931454;29;20051;-68
2022/10/10 06:51:03;;;;;;;26.40;13.55;;;;;;;10.93;nan;94042.25;4930616;29;20048;-71
2022/10/10 06:53:30;;;;;;;33.88;15.50;;;;;;;10.89;nan;94042.28;4901814;29;20056;-71
2022/10/10 06:55:58;;;;;;;30.13;14.73;;;;;;;10.93;nan;94045.00;4930876;29;20397;-71
2022/10/10 06:58:27;;;;;;;22.77;12.90;;;;;;;10.83;nan;94052.19;4931691;29;20047;-71
2022/10/10 07:00:59;;;;;;;23.90;12.93;;;;;;;10.93;nan;94053.22;4938079;29;20423;-71
2022/10/10 07:03:28;;;;;;;25.10;12.95;;;;;;;10.94;nan;94057.50;4936755;29;20054;-71
2022/10/10 07:05:59;;;;;;;31.92;14.43;;;;;;;10.79;nan;94059.69;4934199;29;20320;-69
2022/10/10 07:08:26;;;;;;;34.35;14.55;;;;;;;10.73;nan;94064.88;4935562;29;20370;-70
2022/10/10 07:10:53;;;;;;;29.50;13.88;;;;;;;10.73;nan;94059.38;4934830;29;20044;-70
2022/10/10 07:13:20;;;;;;;29.27;13.47;;;;;;;10.78;nan;94063.63;4935399;29;20058;-70
2022/10/10 07:15:47;;;;;;;30.02;13.88;;;;;;;10.78;nan;94067.16;4935271;29;20057;-70
2022/10/10 07:18:16;;;;;;;25.83;13.40;;;;;;;10.81;nan;94073.03;4934260;29;20876;-70
2022/10/10 07:20:43;;;;;;;25.73;13.02;;;;;;;10.91;nan;94072.09;4935075;29;20044;-71
2022/10/10 07:23:10;;;;;;;28.20;13.45;;;;;;;10.89;nan;94078.00;4934353;29;20040;-70
2022/10/10 07:25:38;;;;;;;27.67;13.50;;;;;;;10.92;nan;94079.88;4935202;29;20380;-70
2022/10/10 07:28:06;;;;;;;25.27;12.73;;;;;;;10.97;nan;94082.19;4934384;29;20052;-70
2022/10/10 07:30:38;;;;;;;25.90;13.13;;;;;;;10.95;nan;94083.78;4935162;29;20051;-70
2022/10/10 07:33:05;;;;;;;26.70;13.68;;;;;;;10.93;nan;94088.94;4934558;29;20415;-70
2022/10/10 07:35:31;;;;;;;33.15;14.52;;;;;;;10.95;nan;94094.78;4934739;29;20047;-70
2022/10/10 07:37:58;;;;;;;23.23;12.90;;;;;;;10.93;nan;94092.44;4917569;29;20051;-69
2022/10/10 07:40:25;;;;;;;23.63;12.82;;;;;;;10.99;nan;94096.28;4934662;29;20036;-69
2022/10/10 07:42:52;;;;;;;26.88;13.88;;;;;;;11.00;nan;94099.78;4934173;29;20039;-69
2022/10/10 07:45:19;;;;;;;25.63;12.65;;;;;;;11.02;nan;94100.16;4934878;29;20044;-70
2022/10/10 07:47:46;;;;;;;28.02;14.27;;;;;;;11.15;nan;94106.66;4921322;29;20050;-69
2022/10/10 07:50:13;;;;;;;25.63;13.60;;;;;;;11.18;nan;94103.06;4916626;29;20684;-70
2022/10/10 07:52:40;;;;;;;24.60;14.23;;;;;;;11.14;nan;94107.06;4934365;29;20039;-70
2022/10/10 07:55:07;;;;;;;25.10;13.32;;;;;;;11.25;nan;94104.16;4934110;29;20040;-69
2022/10/10 07:57:34;;;;;;;28.70;14.00;;;;;;;11.26;nan;94105.72;4934376;29;20493;-69
2022/10/10 08:00:07;;;;;;;27.08;14.27;;;;;;;11.30;nan;94104.47;4919116;29;20043;-69
2022/10/10 08:02:33;;;;;;;26.50;13.47;;;;;;;11.27;nan;94099.81;4926139;29;20050;-70
2022/10/10 08:05:00;;;;;;;26.65;13.98;;;;;;;11.38;nan;94100.41;4916791;29;20408;-70
2022/10/10 08:07:27;;;;;;;23.33;13.18;;;;;;;11.39;nan;94106.69;4934159;29;20043;-70
2022/10/10 08:09:54;;;;;;;24.77;13.18;;;;;;;11.29;nan;94102.91;4933554;29;20050;-69
2022/10/10 08:12:21;;;;;;;23.45;12.73;;;;;;;11.28;nan;94101.34;4933656;29;20044;-70
2022/10/10 08:14:48;;;;;;;24.87;13.30;;;;;;;11.35;nan;94097.75;4933379;29;20077;-68
2022/10/10 08:17:15;;;;;;;25.80;13.50;;;;;;;11.42;nan;94100.34;4933484;29;20047;-70
2022/10/10 08:19:42;;;;;;;23.15;12.43;;;;;;;11.50;nan;94103.78;4933777;29;20051;-70
2022/10/10 08:22:08;;;;;;;21.95;12.35;;;;;;;11.58;nan;94097.75;4916437;29;20481;-70
2022/10/10 08:24:35;;;;;;;24.80;13.02;;;;;;;11.68;nan;94106.25;4933772;29;20047;-70
2022/10/10 08:27:02;;;;;;;23.13;12.50;;;;;;;11.66;nan;94106.66;4933331;29;20087;-69
2022/10/10 08:29:31;;;;;;;26.42;12.75;;;;;;;11.68;nan;94114.50;4933935;29;20047;-70
2022/10/10 08:31:58;;;;;;;22.33;13.02;;;;;;;11.66;nan;94111.38;4933446;29;20094;-69
2022/10/10 08:34:25;;;;;;;26.42;13.60;;;;;;;11.67;nan;94102.72;4934004;29;20062;-70
2022/10/10 08:36:52;;;;;;;23.25;13.50;;;;;;;11.72;nan;94104.97;4933459;29;20058;-69
2022/10/10 08:39:18;;;;;;;23.30;13.50;;;;;;;11.72;nan;94104.22;4933581;29;20044;-70
2022/10/10 08:41:51;;;;;;;21.95;11.93;;;;;;;11.75;nan;94104.16;4916935;29;20046;-70
2022/10/10 08:44:38;;;;;;;21.95;12.40;;;;;;;11.78;nan;94116.28;4932564;29;21814;-70
2022/10/10 08:47:08;;;;;;;24.88;12.00;;;;;;;11.83;nan;94113.06;4933320;29;20044;-70
2022/10/10 08:49:35;;;;;;;23.00;12.57;;;;;;;11.86;nan;94114.19;4933574;29;20048;-70
2022/10/10 08:52:15;;;;;;;19.90;11.87;;;;;;;11.84;nan;94111.09;4932855;29;20048;-69
2022/10/10 08:54:45;;;;;;;22.70;12.55;;;;;;;11.84;nan;94111.84;4933522;29;20048;-70
2022/10/10 08:57:29;;;;;;;20.63;12.48;;;;;;;11.93;nan;94120.38;4932830;29;20044;-70
2022/10/10 09:00:01;;;;;;;19.98;11.25;;;;;;;12.12;nan;94118.09;4933054;29;20040;-69
2022/10/10 09:02:56;;;;;;;20.70;11.70;;;;;;;12.12;nan;94118.09;4948233;29;20047;-70
2022/10/10 09:05:38;;;;;;;21.43;12.07;;;;;;;12.06;nan;94117.78;4932243;29;20843;-70
2022/10/10 09:08:23;;;;;;;21.70;12.10;;;;;;;12.14;nan;94129.44;4932899;29;20048;-70
2022/10/10 09:10:53;;;;;;;21.63;12.02;;;;;;;12.16;nan;94116.06;4932358;29;20058;-69
2022/10/10 09:13:34;;;;;;;23.38;12.68;;;;;;;12.18;nan;94119.16;4932111;29;20062;-70
2022/10/10 09:16:06;;;;;;;19.85;11.77;;;;;;;12.29;nan;94127.22;4932516;29;20070;-70
2022/10/10 09:19:07;;;;;;;22.47;12.07;;;;;;;12.29;nan;94116.97;4933165;29;20392;-70
2022/10/10 09:21:38;;;;;;;22.35;11.50;;;;;;;12.53;nan;94119.69;4931935;29;20197;-70
2022/10/10 09:24:32;;;;;;;21.95;11.43;;;;;;;12.78;nan;94127.47;4931870;29;20051;-71
2022/10/10 09:27:04;;;;;;;21.40;11.50;;;;;;;12.84;nan;94125.75;4932307;29;20056;-70
2022/10/10 09:29:49;;;;;;;20.70;11.43;;;;;;;12.76;nan;94124.34;4931996;29;20047;-70
2022/10/10 09:32:41;;;;;;;20.47;11.43;;;;;;;12.68;nan;94128.44;4931920;29;20858;-70
2022/10/10 09:35:26;;;;;;;19.60;11.88;;;;;;;12.52;nan;94132.69;4932372;29;20051;-70
2022/10/10 09:38:04;;;;;;;22.15;11.48;;;;;;;12.66;nan;94134.38;4932364;29;20043;-69
2022/10/10 09:40:48;;;;;;;20.50;11.05;;;;;;;12.64;nan;94136.78;4932848;29;20050;-70
2022/10/10 09:43:20;;;;;;;22.00;11.07;;;;;;;12.92;nan;94134.66;4931999;29;20309;-70
2022/10/10 09:45:55;;;;;;;19.80;10.93;;;;;;;12.98;nan;94138.47;4932434;29;20050;-70
2022/10/10 09:48:28;;;;;;;20.95;11.20;;;;;;;12.99;nan;94137.25;4931671;29;20189;-70
2022/10/10 09:50:55;;;;;;;20.38;11.27;;;;;;;12.99;nan;94140.00;4932284;29;20055;-70
2022/10/10 09:53:22;;;;;;;19.23;11.15;;;;;;;13.05;nan;94143.81;4932326;29;20055;-70
2022/10/10 09:55:52;;;;;;;21.15;11.30;;;;;;;13.15;nan;94142.03;4932440;29;20043;-69
2022/10/10 09:58:26;;;;;;;19.20;10.33;;;;;;;13.33;nan;94138.91;4932478;29;20054;-70
2022/10/10 10:00:53;;;;;;;22.90;11.80;;;;;;;13.64;nan;94144.88;4935259;29;20489;-70
2022/10/10 10:03:21;;;;;;;18.30;10.18;;;;;;;13.98;nan;94146.44;4931851;29;20048;-70
2022/10/10 10:06:12;;;;;;;15.82;9.38;;;;;;;14.04;nan;94155.00;4931550;29;20048;-69
2022/10/10 10:08:40;;;;;;;17.63;10.10;;;;;;;14.29;nan;94143.34;4932683;29;20052;-70
2022/10/10 10:11:30;;;;;;;17.87;10.47;;;;;;;14.53;nan;94144.66;4915034;29;20044;-70
2022/10/10 10:14:01;;;;;;;17.38;9.00;;;;;;;14.83;nan;94150.19;4931909;29;20106;-70
2022/10/10 10:16:34;;;;;;;16.17;8.82;;;;;;;15.25;nan;94144.66;4932312;29;20066;-70
2022/10/10 10:19:02;;;;;;;17.42;9.43;;;;;;;15.31;nan;94142.88;4932106;29;20047;-70
2022/10/10 10:21:30;;;;;;;16.20;9.40;;;;;;;15.25;nan;94150.19;4915348;29;20055;-70
2022/10/10 10:24:17;;;;;;;15.73;8.60;;;;;;;15.36;nan;94151.41;4931610;29;20055;-70
2022/10/10 10:26:46;;;;;;;16.58;8.57;;;;;;;15.03;nan;94148.06;4932191;29;20054;-70
2022/10/10 10:29:29;;;;;;;15.45;9.15;;;;;;;15.23;nan;94152.59;4931276;29;20743;-70
2022/10/10 10:32:18;;;;;;;14.43;8.93;;;;;;;15.16;nan;94145.31;4931710;29;20051;-70
2022/10/10 10:35:03;;;;;;;16.40;8.70;;;;;;;15.52;nan;94145.00;4932036;29;20044;-70
2022/10/10 10:37:38;;;;;;;17.47;8.20;;;;;;;15.96;nan;94134.19;4931235;29;20680;-69
2022/10/10 10:40:34;;;;;;;14.43;7.38;;;;;;;16.15;nan;94142.66;4933524;29;20042;-70
2022/10/10 10:43:10;;;;;;;12.77;7.65;;;;;;;16.97;nan;94145.38;4935642;29;20047;-70
2022/10/10 10:45:49;;;;;;;12.13;7.57;;;;;;;17.86;nan;94140.47;4935945;29;20074;-70
2022/10/10 10:48:41;;;;;;;12.88;7.40;;;;;;;18.27;nan;94143.22;4934937;29;21506;-70
2022/10/10 10:51:25;;;;;;;13.17;7.67;;;;;;;18.33;nan;94141.38;4935186;29;20082;-70
2022/10/10 10:54:08;;;;;;;12.02;7.03;;;;;;;18.28;nan;94134.41;4934685;29;20070;-70
2022/10/10 10:56:40;;;;;;;12.27;7.40;;;;;;;18.20;nan;94149.06;4935693;29;20046;-70
2022/10/10 10:59:32;;;;;;;10.50;6.68;;;;;;;18.40;nan;94140.31;4934840;29;20397;-70
2022/10/10 11:02:28;;;;;;;10.93;6.25;;;;;;;18.49;nan;94138.31;4896530;29;21019;-70
2022/10/10 11:05:39;;;;;;;11.30;6.73;;;;;;;18.58;nan;94142.34;4934776;29;20052;-70
2022/10/10 11:08:39;;;;;;;13.35;7.38;;;;;;;18.80;nan;94139.44;4934926;29;20055;-70
2022/10/10 11:11:14;;;;;;;13.00;6.15;;;;;;;19.39;nan;94136.41;4934871;29;20054;-70
2022/10/10 11:13:56;;;;;;;9.25;6.03;;;;;;;19.84;nan;94129.97;4935480;29;20055;-71
2022/10/10 11:16:31;;;;;;;10.23;5.95;;;;;;;21.34;nan;94129.97;4934401;29;20684;-71
2022/10/10 11:19:44;;;;;;;8.73;4.90;;;;;;;21.77;nan;94123.34;4930745;29;20428;-70
2022/10/10 11:22:15;;;;;;;8.95;5.20;;;;;;;21.64;nan;94118.06;4919043;29;20047;-71
2022/10/10 11:24:47;;;;;;;10.43;5.22;;;;;;;21.45;nan;94112.69;4935044;29;20047;-70
2022/10/10 11:28:09;;;;;;;10.02;4.60;;;;;;;21.87;nan;94108.78;4934082;29;20763;-70
2022/10/10 11:30:43;;;;;;;7.85;4.50;;;;;;;22.44;nan;94113.16;4881335;29;20452;-71
2022/10/10 11:33:19;;;;;;;8.20;4.00;;;;;;;21.80;nan;94109.19;4934219;29;20489;-70
2022/10/10 11:35:54;;;;;;;9.05;4.72;;;;;;;20.92;nan;94111.44;4935084;29;20050;-71
2022/10/10 11:38:43;;;;;;;7.75;4.10;;;;;;;19.30;nan;94114.97;4934420;29;20047;-69
2022/10/10 11:41:22;;;;;;;10.15;4.38;;;;;;;18.44;nan;94116.69;4934354;29;20044;-70
2022/10/10 11:44:08;;;;;;;9.27;4.90;;;;;;;18.89;nan;94106.06;4934483;29;20511;-71
2022/10/10 11:46:52;;;;;;;9.87;4.90;;;;;;;18.88;nan;94108.06;4935041;29;20070;-70
2022/10/10 11:49:27;;;;;;;10.50;4.72;;;;;;;17.93;nan;94111.69;4933732;29;20653;-70
2022/10/10 11:51:57;;;;;;;9.40;5.22;;;;;;;17.63;nan;94119.56;4932607;29;20054;-70
2022/10/10 11:54:54;;;;;;;10.77;5.50;;;;;;;17.82;nan;94112.06;4921793;29;20085;-70
2022/10/10 11:57:29;;;;;;;13.15;5.32;;;;;;;17.96;nan;94103.19;4933729;29;20925;-69
2022/10/10 12:00:02;;;;;;;11.10;5.03;;;;;;;17.83;nan;94101.72;4934101;29;20048;-69
2022/10/10 12:02:35;;;;;;;12.05;5.70;;;;;;;17.67;nan;94098.00;4941440;29;20051;-69
2022/10/10 12:05:06;;;;;;;9.82;5.30;;;;;;;17.39;nan;94099.88;4933631;29;20054;-70
2022/10/10 12:07:42;;;;;;;9.88;5.20;;;;;;;17.55;nan;94094.09;4934588;29;20503;-69
2022/10/10 12:10:29;;;;;;;10.80;5.35;;;;;;;17.71;nan;94098.63;4933792;29;20047;-70